Terminal Aerodrome Forecast
Issued by NWS

Home | Current Version | Previous Version | Text Only | Print | Product List | Glossary On
Versions: 1 2 3 4 5 6 7 8 9 10 11 12 13 14 15 16 17 18 19 20 21 22 23 24
000
FTUS45 KBOI 212328
TAFTWF
TAF
KTWF 212328Z 2200/2224 10010KT P6SM -SHRA SCT070 OVC090
      TEMPO 2200/2204 -TSRA BKN070CB
     FM220600 13004KT P6SM VCSH SCT060 BKN100
     FM221700 26005KT P6SM FEW070 BKN100=

USA.gov is the U.S. government's official web portal to all federal, state and local government web resources and services.